sensor_id;sensor_type;location;lat;lon;timestamp;temperature;humidity
18240;DHT22;9244;50.828;4.718;2024-01-27T00:00:28;1.80;99.90
18240;DHT22;9244;50.828;4.718;2024-01-27T00:02:56;1.70;99.90
18240;DHT22;9244;50.828;4.718;2024-01-27T00:05:24;1.90;99.90
18240;DHT22;9244;50.828;4.718;2024-01-27T00:07:49;2.00;99.90
18240;DHT22;9244;50.828;4.718;2024-01-27T00:10:15;2.00;99.90
18240;DHT22;9244;50.828;4.718;2024-01-27T00:12:41;1.80;99.90
18240;DHT22;9244;50.828;4.718;2024-01-27T00:15:07;1.90;99.90
18240;DHT22;9244;50.828;4.718;2024-01-27T00:17:34;2.00;99.90
18240;DHT22;9244;50.828;4.718;2024-01-27T00:20:03;2.00;99.90
18240;DHT22;9244;50.828;4.718;2024-01-27T00:22:30;1.90;99.90
18240;DHT22;9244;50.828;4.718;2024-01-27T00:24:56;1.90;99.90
18240;DHT22;9244;50.828;4.718;2024-01-27T00:27:24;2.00;99.90
18240;DHT22;9244;50.828;4.718;2024-01-27T00:29:50;2.00;99.90
18240;DHT22;9244;50.828;4.718;2024-01-27T00:32:15;2.00;99.90
18240;DHT22;9244;50.828;4.718;2024-01-27T00:34:41;2.00;99.90
18240;DHT22;9244;50.828;4.718;2024-01-27T00:37:07;2.00;99.90
18240;DHT22;9244;50.828;4.718;2024-01-27T00:39:35;2.00;99.90
18240;DHT22;9244;50.828;4.718;2024-01-27T00:42:00;2.00;99.90
18240;DHT22;9244;50.828;4.718;2024-01-27T00:44:26;2.00;99.90
18240;DHT22;9244;50.828;4.718;2024-01-27T00:46:52;1.90;99.90
18240;DHT22;9244;50.828;4.718;2024-01-27T00:49:17;1.90;99.90
18240;DHT22;9244;50.828;4.718;2024-01-27T00:51:43;1.70;99.90
18240;DHT22;9244;50.828;4.718;2024-01-27T00:54:09;1.80;99.90
18240;DHT22;9244;50.828;4.718;2024-01-27T00:56:34;1.90;99.90
18240;DHT22;9244;50.828;4.718;2024-01-27T00:59:00;1.90;99.90
18240;DHT22;9244;50.828;4.718;2024-01-27T01:01:28;1.80;99.90
18240;DHT22;9244;50.828;4.718;2024-01-27T01:03:56;1.70;99.90
18240;DHT22;9244;50.828;4.718;2024-01-27T01:06:22;1.80;99.90
18240;DHT22;9244;50.828;4.718;2024-01-27T01:08:48;1.90;99.90
18240;DHT22;9244;50.828;4.718;2024-01-27T01:11:14;1.80;99.90
18240;DHT22;9244;50.828;4.718;2024-01-27T01:13:40;1.60;99.90
18240;DHT22;9244;50.828;4.718;2024-01-27T01:16:08;1.50;99.90
18240;DHT22;9244;50.828;4.718;2024-01-27T01:18:36;1.60;99.90
18240;DHT22;9244;50.828;4.718;2024-01-27T01:21:04;1.60;99.90
18240;DHT22;9244;50.828;4.718;2024-01-27T01:23:32;1.70;99.90
18240;DHT22;9244;50.828;4.718;2024-01-27T01:26:00;1.70;99.90
18240;DHT22;9244;50.828;4.718;2024-01-27T01:28:26;1.70;99.90
18240;DHT22;9244;50.828;4.718;2024-01-27T01:30:51;1.60;99.90
18240;DHT22;9244;50.828;4.718;2024-01-27T01:33:17;1.80;99.90
18240;DHT22;9244;50.828;4.718;2024-01-27T01:35:42;1.80;99.90
18240;DHT22;9244;50.828;4.718;2024-01-27T01:38:08;1.80;99.90
18240;DHT22;9244;50.828;4.718;2024-01-27T01:40:34;1.80;99.90
18240;DHT22;9244;50.828;4.718;2024-01-27T01:42:59;1.80;99.90
18240;DHT22;9244;50.828;4.718;2024-01-27T01:45:25;1.80;99.90
18240;DHT22;9244;50.828;4.718;2024-01-27T01:47:53;1.80;99.90
18240;DHT22;9244;50.828;4.718;2024-01-27T01:50:19;1.80;99.90
18240;DHT22;9244;50.828;4.718;2024-01-27T01:52:47;1.70;99.90
18240;DHT22;9244;50.828;4.718;2024-01-27T01:55:14;1.50;99.90
18240;DHT22;9244;50.828;4.718;2024-01-27T01:57:40;1.60;99.90
18240;DHT22;9244;50.828;4.718;2024-01-27T02:00:06;1.60;99.90
18240;DHT22;9244;50.828;4.718;2024-01-27T02:02:32;1.50;99.90
18240;DHT22;9244;50.828;4.718;2024-01-27T02:05:00;1.50;99.90
18240;DHT22;9244;50.828;4.718;2024-01-27T02:07:27;1.50;99.90
18240;DHT22;9244;50.828;4.718;2024-01-27T02:09:52;1.50;99.90
18240;DHT22;9244;50.828;4.718;2024-01-27T02:12:18;1.40;99.90
18240;DHT22;9244;50.828;4.718;2024-01-27T02:14:46;1.40;99.90
18240;DHT22;9244;50.828;4.718;2024-01-27T02:17:12;1.40;99.90
18240;DHT22;9244;50.828;4.718;2024-01-27T02:19:37;1.20;99.90
18240;DHT22;9244;50.828;4.718;2024-01-27T02:22:03;1.30;99.90
18240;DHT22;9244;50.828;4.718;2024-01-27T02:24:29;1.40;99.90
18240;DHT22;9244;50.828;4.718;2024-01-27T02:26:54;1.30;99.90
18240;DHT22;9244;50.828;4.718;2024-01-27T02:29:22;1.40;99.90
18240;DHT22;9244;50.828;4.718;2024-01-27T02:31:48;1.40;99.90
18240;DHT22;9244;50.828;4.718;2024-01-27T02:34:16;1.30;99.90
18240;DHT22;9244;50.828;4.718;2024-01-27T02:36:42;1.20;99.90
18240;DHT22;9244;50.828;4.718;2024-01-27T02:39:09;1.20;99.90
18240;DHT22;9244;50.828;4.718;2024-01-27T02:41:37;1.20;99.90
18240;DHT22;9244;50.828;4.718;2024-01-27T02:44:05;1.30;99.90
18240;DHT22;9244;50.828;4.718;2024-01-27T02:46:33;1.20;99.90
18240;DHT22;9244;50.828;4.718;2024-01-27T02:48:58;1.40;99.90
18240;DHT22;9244;50.828;4.718;2024-01-27T02:51:24;1.60;99.90
18240;DHT22;9244;50.828;4.718;2024-01-27T02:53:50;1.50;99.90
18240;DHT22;9244;50.828;4.718;2024-01-27T02:56:18;1.60;99.90
18240;DHT22;9244;50.828;4.718;2024-01-27T02:58:44;1.60;99.90
18240;DHT22;9244;50.828;4.718;2024-01-27T03:01:10;1.60;99.90
18240;DHT22;9244;50.828;4.718;2024-01-27T03:03:35;1.60;99.90
18240;DHT22;9244;50.828;4.718;2024-01-27T03:06:01;1.50;99.90
18240;DHT22;9244;50.828;4.718;2024-01-27T03:08:27;1.60;99.90
18240;DHT22;9244;50.828;4.718;2024-01-27T03:10:52;1.60;99.90
18240;DHT22;9244;50.828;4.718;2024-01-27T03:13:18;1.60;99.90
18240;DHT22;9244;50.828;4.718;2024-01-27T03:15:44;1.50;99.90
18240;DHT22;9244;50.828;4.718;2024-01-27T03:18:10;1.40;99.90
18240;DHT22;9244;50.828;4.718;2024-01-27T03:20:36;1.40;99.90
18240;DHT22;9244;50.828;4.718;2024-01-27T03:23:01;1.30;99.90
18240;DHT22;9244;50.828;4.718;2024-01-27T03:25:29;1.30;99.90
18240;DHT22;9244;50.828;4.718;2024-01-27T03:27:57;1.20;99.90
18240;DHT22;9244;50.828;4.718;2024-01-27T03:30:23;1.20;99.90
18240;DHT22;9244;50.828;4.718;2024-01-27T03:32:48;1.20;99.90
18240;DHT22;9244;50.828;4.718;2024-01-27T03:35:16;1.10;99.90
18240;DHT22;9244;50.828;4.718;2024-01-27T03:37:44;1.10;99.90
18240;DHT22;9244;50.828;4.718;2024-01-27T03:40:13;1.20;99.90
18240;DHT22;9244;50.828;4.718;2024-01-27T03:42:39;1.10;99.90
18240;DHT22;9244;50.828;4.718;2024-01-27T03:45:05;1.20;99.90
18240;DHT22;9244;50.828;4.718;2024-01-27T03:47:30;1.10;99.90
18240;DHT22;9244;50.828;4.718;2024-01-27T03:49:56;1.10;99.90
18240;DHT22;9244;50.828;4.718;2024-01-27T03:52:24;1.10;99.90
18240;DHT22;9244;50.828;4.718;2024-01-27T03:54:50;1.00;99.90
18240;DHT22;9244;50.828;4.718;2024-01-27T03:57:15;1.00;99.90
18240;DHT22;9244;50.828;4.718;2024-01-27T03:59:41;1.10;99.90
18240;DHT22;9244;50.828;4.718;2024-01-27T04:02:07;1.10;99.90
18240;DHT22;9244;50.828;4.718;2024-01-27T04:04:33;1.10;99.90
18240;DHT22;9244;50.828;4.718;2024-01-27T04:06:58;1.00;99.90
18240;DHT22;9244;50.828;4.718;2024-01-27T04:09:24;1.10;99.90
18240;DHT22;9244;50.828;4.718;2024-01-27T04:11:54;1.20;99.90
18240;DHT22;9244;50.828;4.718;2024-01-27T04:14:19;1.10;99.90
18240;DHT22;9244;50.828;4.718;2024-01-27T04:16:45;1.10;99.90
18240;DHT22;9244;50.828;4.718;2024-01-27T04:19:16;1.00;99.90
18240;DHT22;9244;50.828;4.718;2024-01-27T04:21:41;1.10;99.90
18240;DHT22;9244;50.828;4.718;2024-01-27T04:24:08;1.10;99.90
18240;DHT22;9244;50.828;4.718;2024-01-27T04:26:34;1.10;99.90
18240;DHT22;9244;50.828;4.718;2024-01-27T04:28:59;1.00;99.90
18240;DHT22;9244;50.828;4.718;2024-01-27T04:31:27;1.10;99.90
18240;DHT22;9244;50.828;4.718;2024-01-27T04:33:55;1.00;99.90
18240;DHT22;9244;50.828;4.718;2024-01-27T04:36:27;1.10;99.90
18240;DHT22;9244;50.828;4.718;2024-01-27T04:38:54;1.10;99.90
18240;DHT22;9244;50.828;4.718;2024-01-27T04:41:22;1.10;99.90
18240;DHT22;9244;50.828;4.718;2024-01-27T04:43:48;1.00;99.90
18240;DHT22;9244;50.828;4.718;2024-01-27T04:46:16;1.00;99.90
18240;DHT22;9244;50.828;4.718;2024-01-27T04:48:44;0.90;99.90
18240;DHT22;9244;50.828;4.718;2024-01-27T04:51:09;0.90;99.90
18240;DHT22;9244;50.828;4.718;2024-01-27T04:53:35;0.90;99.90
18240;DHT22;9244;50.828;4.718;2024-01-27T04:56:03;0.90;99.90
18240;DHT22;9244;50.828;4.718;2024-01-27T04:58:33;1.00;99.90
18240;DHT22;9244;50.828;4.718;2024-01-27T05:01:00;1.00;99.90
18240;DHT22;9244;50.828;4.718;2024-01-27T05:03:26;1.00;99.90
18240;DHT22;9244;50.828;4.718;2024-01-27T05:05:52;1.00;99.90
18240;DHT22;9244;50.828;4.718;2024-01-27T05:08:18;1.00;99.90
18240;DHT22;9244;50.828;4.718;2024-01-27T05:10:44;1.00;99.90
18240;DHT22;9244;50.828;4.718;2024-01-27T05:13:10;1.00;99.90
18240;DHT22;9244;50.828;4.718;2024-01-27T05:15:36;1.00;99.90
18240;DHT22;9244;50.828;4.718;2024-01-27T05:18:01;1.00;99.90
18240;DHT22;9244;50.828;4.718;2024-01-27T05:20:27;0.90;99.90
18240;DHT22;9244;50.828;4.718;2024-01-27T05:22:52;0.90;99.90
18240;DHT22;9244;50.828;4.718;2024-01-27T05:25:18;0.90;99.90
18240;DHT22;9244;50.828;4.718;2024-01-27T05:27:44;0.90;99.90
18240;DHT22;9244;50.828;4.718;2024-01-27T05:30:10;0.90;99.90
18240;DHT22;9244;50.828;4.718;2024-01-27T05:32:36;0.80;99.90
18240;DHT22;9244;50.828;4.718;2024-01-27T05:35:04;0.80;99.90
18240;DHT22;9244;50.828;4.718;2024-01-27T05:37:30;0.80;99.90
18240;DHT22;9244;50.828;4.718;2024-01-27T05:39:56;0.90;99.90
18240;DHT22;9244;50.828;4.718;2024-01-27T05:42:22;0.90;99.90
18240;DHT22;9244;50.828;4.718;2024-01-27T05:44:47;0.90;99.90
18240;DHT22;9244;50.828;4.718;2024-01-27T05:47:13;0.70;99.90
18240;DHT22;9244;50.828;4.718;2024-01-27T05:49:41;0.80;99.90
18240;DHT22;9244;50.828;4.718;2024-01-27T05:52:09;0.80;99.90
18240;DHT22;9244;50.828;4.718;2024-01-27T05:54:37;0.80;99.90
18240;DHT22;9244;50.828;4.718;2024-01-27T05:57:04;0.80;99.90
18240;DHT22;9244;50.828;4.718;2024-01-27T05:59:30;0.90;99.90
18240;DHT22;9244;50.828;4.718;2024-01-27T06:01:58;0.90;99.90
18240;DHT22;9244;50.828;4.718;2024-01-27T06:04:24;0.90;99.90
18240;DHT22;9244;50.828;4.718;2024-01-27T06:06:52;0.80;99.90
18240;DHT22;9244;50.828;4.718;2024-01-27T06:09:18;0.70;99.90
18240;DHT22;9244;50.828;4.718;2024-01-27T06:11:43;0.70;99.90
18240;DHT22;9244;50.828;4.718;2024-01-27T06:14:09;0.60;99.90
18240;DHT22;9244;50.828;4.718;2024-01-27T06:16:35;0.60;99.90
18240;DHT22;9244;50.828;4.718;2024-01-27T06:19:01;0.70;99.90
18240;DHT22;9244;50.828;4.718;2024-01-27T06:21:26;0.70;99.90
18240;DHT22;9244;50.828;4.718;2024-01-27T06:23:52;0.60;99.90
18240;DHT22;9244;50.828;4.718;2024-01-27T06:26:18;0.60;99.90
18240;DHT22;9244;50.828;4.718;2024-01-27T06:28:44;0.70;99.90
18240;DHT22;9244;50.828;4.718;2024-01-27T06:31:09;0.70;99.90
18240;DHT22;9244;50.828;4.718;2024-01-27T06:33:37;0.80;99.90
18240;DHT22;9244;50.828;4.718;2024-01-27T06:36:03;0.80;99.90
18240;DHT22;9244;50.828;4.718;2024-01-27T06:38:29;0.90;99.90
18240;DHT22;9244;50.828;4.718;2024-01-27T06:40:57;0.90;99.90
18240;DHT22;9244;50.828;4.718;2024-01-27T06:43:25;0.90;99.90
18240;DHT22;9244;50.828;4.718;2024-01-27T06:45:51;0.80;99.90
18240;DHT22;9244;50.828;4.718;2024-01-27T06:48:16;0.70;99.90
18240;DHT22;9244;50.828;4.718;2024-01-27T06:50:42;0.70;99.90
18240;DHT22;9244;50.828;4.718;2024-01-27T06:53:08;0.70;99.90
18240;DHT22;9244;50.828;4.718;2024-01-27T06:55:35;0.70;99.90
18240;DHT22;9244;50.828;4.718;2024-01-27T06:58:03;0.60;99.90
18240;DHT22;9244;50.828;4.718;2024-01-27T07:00:29;0.70;99.90
18240;DHT22;9244;50.828;4.718;2024-01-27T07:02:58;0.70;99.90
18240;DHT22;9244;50.828;4.718;2024-01-27T07:05:23;0.70;99.90
18240;DHT22;9244;50.828;4.718;2024-01-27T07:07:49;0.70;99.90
18240;DHT22;9244;50.828;4.718;2024-01-27T07:10:15;0.70;99.90
18240;DHT22;9244;50.828;4.718;2024-01-27T07:12:40;0.70;99.90
18240;DHT22;9244;50.828;4.718;2024-01-27T07:15:06;0.70;99.90
18240;DHT22;9244;50.828;4.718;2024-01-27T07:17:32;0.80;99.90
18240;DHT22;9244;50.828;4.718;2024-01-27T07:19:58;0.80;99.90
18240;DHT22;9244;50.828;4.718;2024-01-27T07:22:25;0.80;99.90
18240;DHT22;9244;50.828;4.718;2024-01-27T07:24:51;0.80;99.90
18240;DHT22;9244;50.828;4.718;2024-01-27T07:27:22;0.80;99.90
18240;DHT22;9244;50.828;4.718;2024-01-27T07:29:48;0.80;99.90
18240;DHT22;9244;50.828;4.718;2024-01-27T07:32:13;0.70;99.90
18240;DHT22;9244;50.828;4.718;2024-01-27T07:34:41;0.70;99.90
18240;DHT22;9244;50.828;4.718;2024-01-27T07:37:07;0.50;99.90
18240;DHT22;9244;50.828;4.718;2024-01-27T07:39:33;0.50;99.90
18240;DHT22;9244;50.828;4.718;2024-01-27T07:41:59;0.60;99.90
18240;DHT22;9244;50.828;4.718;2024-01-27T07:44:24;0.70;99.90
18240;DHT22;9244;50.828;4.718;2024-01-27T07:46:52;0.80;99.90
18240;DHT22;9244;50.828;4.718;2024-01-27T07:49:18;0.80;99.90
18240;DHT22;9244;50.828;4.718;2024-01-27T07:51:43;0.80;99.90
18240;DHT22;9244;50.828;4.718;2024-01-27T07:54:09;0.90;99.90
18240;DHT22;9244;50.828;4.718;2024-01-27T07:56:35;1.00;99.90
18240;DHT22;9244;50.828;4.718;2024-01-27T07:59:01;1.00;99.90
18240;DHT22;9244;50.828;4.718;2024-01-27T08:01:29;1.00;99.90
18240;DHT22;9244;50.828;4.718;2024-01-27T08:03:54;1.00;99.90
18240;DHT22;9244;50.828;4.718;2024-01-27T08:06:28;1.00;99.90
18240;DHT22;9244;50.828;4.718;2024-01-27T08:08:54;1.10;99.90
18240;DHT22;9244;50.828;4.718;2024-01-27T08:11:20;1.20;99.90
18240;DHT22;9244;50.828;4.718;2024-01-27T08:13:46;1.20;99.90
18240;DHT22;9244;50.828;4.718;2024-01-27T08:16:14;1.30;99.90
18240;DHT22;9244;50.828;4.718;2024-01-27T08:18:40;1.30;99.90
18240;DHT22;9244;50.828;4.718;2024-01-27T08:21:08;1.30;99.90
18240;DHT22;9244;50.828;4.718;2024-01-27T08:23:36;1.30;99.90
18240;DHT22;9244;50.828;4.718;2024-01-27T08:26:01;1.40;99.90
18240;DHT22;9244;50.828;4.718;2024-01-27T08:28:27;1.40;99.90
18240;DHT22;9244;50.828;4.718;2024-01-27T08:30:53;1.40;99.90
18240;DHT22;9244;50.828;4.718;2024-01-27T08:33:21;1.50;99.90
18240;DHT22;9244;50.828;4.718;2024-01-27T08:35:47;1.50;99.90
18240;DHT22;9244;50.828;4.718;2024-01-27T08:38:17;1.60;99.90
18240;DHT22;9244;50.828;4.718;2024-01-27T08:40:43;1.60;99.90
18240;DHT22;9244;50.828;4.718;2024-01-27T08:43:08;1.70;99.90
18240;DHT22;9244;50.828;4.718;2024-01-27T08:45:37;1.80;99.90
18240;DHT22;9244;50.828;4.718;2024-01-27T08:48:05;1.90;99.90
18240;DHT22;9244;50.828;4.718;2024-01-27T08:50:31;2.00;99.90
18240;DHT22;9244;50.828;4.718;2024-01-27T08:52:56;2.10;99.90
18240;DHT22;9244;50.828;4.718;2024-01-27T08:55:22;2.20;99.90
18240;DHT22;9244;50.828;4.718;2024-01-27T08:57:50;2.30;99.90
18240;DHT22;9244;50.828;4.718;2024-01-27T09:00:16;2.40;99.90
18240;DHT22;9244;50.828;4.718;2024-01-27T09:02:42;2.50;99.90
18240;DHT22;9244;50.828;4.718;2024-01-27T09:05:08;2.70;99.90
18240;DHT22;9244;50.828;4.718;2024-01-27T09:07:34;2.90;99.90
18240;DHT22;9244;50.828;4.718;2024-01-27T09:09:59;3.50;99.90
18240;DHT22;9244;50.828;4.718;2024-01-27T09:12:25;4.20;99.90
18240;DHT22;9244;50.828;4.718;2024-01-27T09:14:52;4.70;99.90
18240;DHT22;9244;50.828;4.718;2024-01-27T09:17:19;4.90;99.90
18240;DHT22;9244;50.828;4.718;2024-01-27T09:19:47;5.20;99.90
18240;DHT22;9244;50.828;4.718;2024-01-27T09:22:13;5.40;99.90
18240;DHT22;9244;50.828;4.718;2024-01-27T09:24:39;5.80;99.90
18240;DHT22;9244;50.828;4.718;2024-01-27T09:27:05;6.10;99.90
18240;DHT22;9244;50.828;4.718;2024-01-27T09:29:31;6.40;99.90
18240;DHT22;9244;50.828;4.718;2024-01-27T09:31:56;6.80;99.90
18240;DHT22;9244;50.828;4.718;2024-01-27T09:34:24;6.80;99.90
18240;DHT22;9244;50.828;4.718;2024-01-27T09:36:50;7.00;99.90
18240;DHT22;9244;50.828;4.718;2024-01-27T09:39:16;7.30;99.90
18240;DHT22;9244;50.828;4.718;2024-01-27T09:41:42;7.20;99.90
18240;DHT22;9244;50.828;4.718;2024-01-27T09:44:11;7.50;99.90
18240;DHT22;9244;50.828;4.718;2024-01-27T09:46:38;7.50;99.90
18240;DHT22;9244;50.828;4.718;2024-01-27T09:49:09;7.70;99.90
18240;DHT22;9244;50.828;4.718;2024-01-27T09:51:38;7.80;99.90
18240;DHT22;9244;50.828;4.718;2024-01-27T09:54:04;7.90;99.90
18240;DHT22;9244;50.828;4.718;2024-01-27T09:56:31;7.90;99.90
18240;DHT22;9244;50.828;4.718;2024-01-27T09:58:57;8.20;99.90
18240;DHT22;9244;50.828;4.718;2024-01-27T10:01:27;8.10;99.90
18240;DHT22;9244;50.828;4.718;2024-01-27T10:03:54;8.10;99.90
18240;DHT22;9244;50.828;4.718;2024-01-27T10:06:21;8.20;99.90
18240;DHT22;9244;50.828;4.718;2024-01-27T10:08:56;8.10;99.90
18240;DHT22;9244;50.828;4.718;2024-01-27T10:11:25;8.20;99.90
18240;DHT22;9244;50.828;4.718;2024-01-27T10:13:56;8.10;99.90
18240;DHT22;9244;50.828;4.718;2024-01-27T10:16:23;8.60;99.90
18240;DHT22;9244;50.828;4.718;2024-01-27T10:18:59;9.10;99.90
18240;DHT22;9244;50.828;4.718;2024-01-27T10:21:28;9.00;99.90
18240;DHT22;9244;50.828;4.718;2024-01-27T10:23:54;8.80;99.90
18240;DHT22;9244;50.828;4.718;2024-01-27T10:26:19;8.80;99.90
18240;DHT22;9244;50.828;4.718;2024-01-27T10:28:59;8.40;99.90
18240;DHT22;9244;50.828;4.718;2024-01-27T10:31:34;8.60;99.90
18240;DHT22;9244;50.828;4.718;2024-01-27T10:34:00;8.60;99.90
18240;DHT22;9244;50.828;4.718;2024-01-27T10:36:41;8.40;99.90
18240;DHT22;9244;50.828;4.718;2024-01-27T10:39:21;8.60;99.90
18240;DHT22;9244;50.828;4.718;2024-01-27T10:41:51;9.00;99.90
18240;DHT22;9244;50.828;4.718;2024-01-27T10:44:20;9.20;99.90
18240;DHT22;9244;50.828;4.718;2024-01-27T10:46:47;9.50;99.90
18240;DHT22;9244;50.828;4.718;2024-01-27T10:49:17;9.00;99.90
18240;DHT22;9244;50.828;4.718;2024-01-27T10:51:54;8.70;99.90
18240;DHT22;9244;50.828;4.718;2024-01-27T10:54:25;8.20;99.90
18240;DHT22;9244;50.828;4.718;2024-01-27T10:56:53;8.20;99.90
18240;DHT22;9244;50.828;4.718;2024-01-27T10:59:21;8.20;99.90
18240;DHT22;9244;50.828;4.718;2024-01-27T11:01:49;8.20;99.90
18240;DHT22;9244;50.828;4.718;2024-01-27T11:04:17;8.60;99.90
18240;DHT22;9244;50.828;4.718;2024-01-27T11:06:43;8.60;99.90
18240;DHT22;9244;50.828;4.718;2024-01-27T11:09:10;8.30;99.90
18240;DHT22;9244;50.828;4.718;2024-01-27T11:11:38;7.90;99.90
18240;DHT22;9244;50.828;4.718;2024-01-27T11:14:05;7.70;99.90
18240;DHT22;9244;50.828;4.718;2024-01-27T11:16:31;7.70;99.90
18240;DHT22;9244;50.828;4.718;2024-01-27T11:18:57;8.20;99.90
18240;DHT22;9244;50.828;4.718;2024-01-27T11:21:23;9.70;99.90
18240;DHT22;9244;50.828;4.718;2024-01-27T11:23:50;10.30;99.90
18240;DHT22;9244;50.828;4.718;2024-01-27T11:26:21;10.40;99.90
18240;DHT22;9244;50.828;4.718;2024-01-27T11:28:51;10.50;99.90
18240;DHT22;9244;50.828;4.718;2024-01-27T11:31:18;10.90;99.90
18240;DHT22;9244;50.828;4.718;2024-01-27T11:33:47;10.80;99.90
18240;DHT22;9244;50.828;4.718;2024-01-27T11:36:23;10.80;99.90
18240;DHT22;9244;50.828;4.718;2024-01-27T11:38:50;11.80;99.90
18240;DHT22;9244;50.828;4.718;2024-01-27T11:41:28;11.60;99.90
18240;DHT22;9244;50.828;4.718;2024-01-27T11:43:58;11.40;99.90
18240;DHT22;9244;50.828;4.718;2024-01-27T11:46:27;11.50;99.90
18240;DHT22;9244;50.828;4.718;2024-01-27T11:48:53;11.20;99.90
18240;DHT22;9244;50.828;4.718;2024-01-27T11:51:21;11.20;99.90
18240;DHT22;9244;50.828;4.718;2024-01-27T11:53:50;10.80;99.90
18240;DHT22;9244;50.828;4.718;2024-01-27T11:56:15;10.70;99.90
18240;DHT22;9244;50.828;4.718;2024-01-27T11:58:48;10.40;99.90
18240;DHT22;9244;50.828;4.718;2024-01-27T12:01:15;9.80;99.90
18240;DHT22;9244;50.828;4.718;2024-01-27T12:03:43;10.00;99.90
18240;DHT22;9244;50.828;4.718;2024-01-27T12:06:09;9.70;99.90
18240;DHT22;9244;50.828;4.718;2024-01-27T12:08:35;9.60;99.90
18240;DHT22;9244;50.828;4.718;2024-01-27T12:11:01;9.60;99.90
18240;DHT22;9244;50.828;4.718;2024-01-27T12:13:27;9.60;99.90
18240;DHT22;9244;50.828;4.718;2024-01-27T12:15:53;9.50;99.90
18240;DHT22;9244;50.828;4.718;2024-01-27T12:18:19;9.30;99.90
18240;DHT22;9244;50.828;4.718;2024-01-27T12:20:45;9.10;99.90
18240;DHT22;9244;50.828;4.718;2024-01-27T12:23:16;9.30;99.90
18240;DHT22;9244;50.828;4.718;2024-01-27T12:25:53;9.30;99.90
18240;DHT22;9244;50.828;4.718;2024-01-27T12:28:19;9.20;99.90
18240;DHT22;9244;50.828;4.718;2024-01-27T12:30:46;9.00;99.90
18240;DHT22;9244;50.828;4.718;2024-01-27T12:33:14;9.10;99.90
18240;DHT22;9244;50.828;4.718;2024-01-27T12:35:40;9.30;99.90
18240;DHT22;9244;50.828;4.718;2024-01-27T12:38:08;9.40;99.90
18240;DHT22;9244;50.828;4.718;2024-01-27T12:40:35;9.70;99.90
18240;DHT22;9244;50.828;4.718;2024-01-27T12:43:03;10.40;99.90
18240;DHT22;9244;50.828;4.718;2024-01-27T12:45:28;10.80;99.90
18240;DHT22;9244;50.828;4.718;2024-01-27T12:47:54;10.50;99.90
18240;DHT22;9244;50.828;4.718;2024-01-27T12:50:20;10.40;99.90
18240;DHT22;9244;50.828;4.718;2024-01-27T12:52:46;10.70;99.90
18240;DHT22;9244;50.828;4.718;2024-01-27T12:55:13;10.90;99.90
18240;DHT22;9244;50.828;4.718;2024-01-27T12:57:39;10.80;99.90
18240;DHT22;9244;50.828;4.718;2024-01-27T13:00:07;10.70;99.90
18240;DHT22;9244;50.828;4.718;2024-01-27T13:02:36;10.50;99.90
18240;DHT22;9244;50.828;4.718;2024-01-27T13:05:03;10.40;99.90
18240;DHT22;9244;50.828;4.718;2024-01-27T13:07:34;10.70;99.90
18240;DHT22;9244;50.828;4.718;2024-01-27T13:10:02;11.10;99.90
18240;DHT22;9244;50.828;4.718;2024-01-27T13:12:28;11.50;99.90
18240;DHT22;9244;50.828;4.718;2024-01-27T13:14:56;11.60;99.90
18240;DHT22;9244;50.828;4.718;2024-01-27T13:17:22;11.80;99.90
18240;DHT22;9244;50.828;4.718;2024-01-27T13:19:47;12.10;99.90
18240;DHT22;9244;50.828;4.718;2024-01-27T13:22:13;12.10;99.90
18240;DHT22;9244;50.828;4.718;2024-01-27T13:24:39;11.70;99.90
18240;DHT22;9244;50.828;4.718;2024-01-27T13:27:07;11.40;99.90
18240;DHT22;9244;50.828;4.718;2024-01-27T13:29:35;11.60;99.90
18240;DHT22;9244;50.828;4.718;2024-01-27T13:32:00;11.80;99.90
18240;DHT22;9244;50.828;4.718;2024-01-27T13:34:28;12.00;99.90
18240;DHT22;9244;50.828;4.718;2024-01-27T13:36:58;12.00;99.90
18240;DHT22;9244;50.828;4.718;2024-01-27T13:39:25;11.90;99.90
18240;DHT22;9244;50.828;4.718;2024-01-27T13:41:53;12.30;99.90
18240;DHT22;9244;50.828;4.718;2024-01-27T13:44:19;12.40;99.90
18240;DHT22;9244;50.828;4.718;2024-01-27T13:46:47;12.10;99.90
18240;DHT22;9244;50.828;4.718;2024-01-27T13:49:15;12.00;99.90
18240;DHT22;9244;50.828;4.718;2024-01-27T13:51:41;11.80;99.90
18240;DHT22;9244;50.828;4.718;2024-01-27T13:54:06;11.60;99.90
18240;DHT22;9244;50.828;4.718;2024-01-27T13:56:34;11.30;99.90
18240;DHT22;9244;50.828;4.718;2024-01-27T13:59:00;11.30;99.90
18240;DHT22;9244;50.828;4.718;2024-01-27T14:01:26;11.20;99.90
18240;DHT22;9244;50.828;4.718;2024-01-27T14:03:51;11.10;99.90
18240;DHT22;9244;50.828;4.718;2024-01-27T14:06:17;11.20;99.90
18240;DHT22;9244;50.828;4.718;2024-01-27T14:08:43;11.50;99.90
18240;DHT22;9244;50.828;4.718;2024-01-27T14:11:11;11.70;99.90
18240;DHT22;9244;50.828;4.718;2024-01-27T14:13:37;11.80;99.90
18240;DHT22;9244;50.828;4.718;2024-01-27T14:16:02;12.50;99.90
18240;DHT22;9244;50.828;4.718;2024-01-27T14:18:28;13.00;99.90
18240;DHT22;9244;50.828;4.718;2024-01-27T14:20:54;13.40;99.90
18240;DHT22;9244;50.828;4.718;2024-01-27T14:23:19;13.30;99.90
18240;DHT22;9244;50.828;4.718;2024-01-27T14:25:45;12.90;99.90
18240;DHT22;9244;50.828;4.718;2024-01-27T14:28:11;12.80;99.90
18240;DHT22;9244;50.828;4.718;2024-01-27T14:30:39;12.80;99.90
18240;DHT22;9244;50.828;4.718;2024-01-27T14:33:05;13.40;99.90
18240;DHT22;9244;50.828;4.718;2024-01-27T14:35:33;13.40;99.90
18240;DHT22;9244;50.828;4.718;2024-01-27T14:38:01;13.40;99.90
18240;DHT22;9244;50.828;4.718;2024-01-27T14:40:27;13.40;99.90
18240;DHT22;9244;50.828;4.718;2024-01-27T14:42:53;12.70;99.90
18240;DHT22;9244;50.828;4.718;2024-01-27T14:45:21;12.30;99.90
18240;DHT22;9244;50.828;4.718;2024-01-27T14:47:46;12.10;99.90
18240;DHT22;9244;50.828;4.718;2024-01-27T14:50:12;11.60;99.90
18240;DHT22;9244;50.828;4.718;2024-01-27T14:52:38;11.30;99.90
18240;DHT22;9244;50.828;4.718;2024-01-27T14:55:04;11.10;99.90
18240;DHT22;9244;50.828;4.718;2024-01-27T14:57:29;10.80;99.90
18240;DHT22;9244;50.828;4.718;2024-01-27T14:59:58;10.60;99.90
18240;DHT22;9244;50.828;4.718;2024-01-27T15:02:23;10.40;99.90
18240;DHT22;9244;50.828;4.718;2024-01-27T15:04:49;10.10;99.90
18240;DHT22;9244;50.828;4.718;2024-01-27T15:07:17;10.00;99.90
18240;DHT22;9244;50.828;4.718;2024-01-27T15:09:43;9.90;99.90
18240;DHT22;9244;50.828;4.718;2024-01-27T15:12:11;9.60;99.90
18240;DHT22;9244;50.828;4.718;2024-01-27T15:14:37;9.40;99.90
18240;DHT22;9244;50.828;4.718;2024-01-27T15:17:03;9.30;99.90
18240;DHT22;9244;50.828;4.718;2024-01-27T15:19:32;9.00;99.90
18240;DHT22;9244;50.828;4.718;2024-01-27T15:22:00;8.90;99.90
18240;DHT22;9244;50.828;4.718;2024-01-27T15:24:28;8.80;99.90
18240;DHT22;9244;50.828;4.718;2024-01-27T15:26:59;8.70;99.90
18240;DHT22;9244;50.828;4.718;2024-01-27T15:29:29;8.60;99.90
18240;DHT22;9244;50.828;4.718;2024-01-27T15:31:55;8.60;99.90
18240;DHT22;9244;50.828;4.718;2024-01-27T15:34:21;8.50;99.90
18240;DHT22;9244;50.828;4.718;2024-01-27T15:36:47;8.40;99.90
18240;DHT22;9244;50.828;4.718;2024-01-27T15:39:15;8.30;99.90
18240;DHT22;9244;50.828;4.718;2024-01-27T15:41:43;8.10;99.90
18240;DHT22;9244;50.828;4.718;2024-01-27T15:44:09;7.90;99.90
18240;DHT22;9244;50.828;4.718;2024-01-27T15:46:34;7.90;99.90
18240;DHT22;9244;50.828;4.718;2024-01-27T15:49:02;7.80;99.90
18240;DHT22;9244;50.828;4.718;2024-01-27T15:51:30;7.80;99.90
18240;DHT22;9244;50.828;4.718;2024-01-27T15:53:56;7.70;99.90
18240;DHT22;9244;50.828;4.718;2024-01-27T15:56:22;7.70;99.90